Terminal Aerodrome Forecast
Issued by NWS Albany, NY

Home | Current Version | Previous Version | Text Only | Print | Product List | Glossary On
Versions: 1 2 3 4 5 6 7 8 9 10 11 12 13 14 15 16 17 18
000
FTUS41 KALY 311737
TAFPOU
TAF
KPOU 311737Z 3118/0118 34008G15KT P6SM SCT250
     FM312300 VRB03KT P6SM FEW250
     FM010200 00000KT P6SM SKC
     FM010600 00000KT P6SM FEW080 SCT250
     FM011300 VRB04KT P6SM BKN250=

USA.gov is the U.S. government's official web portal to all federal, state and local government web resources and services.